sensor_id;sensor_type;location;lat;lon;timestamp;P1;durP1;ratioP1;P2;durP2;ratioP2
6898;SDS011;3488;42.616;23.350;2022-11-20T00:00:18;6.43;;;3.85;;
6898;SDS011;3488;42.616;23.350;2022-11-20T00:02:45;5.75;;;5.22;;
6898;SDS011;3488;42.616;23.350;2022-11-20T00:05:12;7.05;;;4.43;;
6898;SDS011;3488;42.616;23.350;2022-11-20T00:07:40;6.20;;;5.30;;
6898;SDS011;3488;42.616;23.350;2022-11-20T00:10:07;5.45;;;4.93;;
6898;SDS011;3488;42.616;23.350;2022-11-20T00:12:35;2.20;;;1.42;;
6898;SDS011;3488;42.616;23.350;2022-11-20T00:15:01;1.60;;;1.50;;
6898;SDS011;3488;42.616;23.350;2022-11-20T00:17:29;2.53;;;1.42;;
6898;SDS011;3488;42.616;23.350;2022-11-20T00:19:55;2.28;;;1.10;;
6898;SDS011;3488;42.616;23.350;2022-11-20T00:22:22;1.33;;;0.85;;
6898;SDS011;3488;42.616;23.350;2022-11-20T00:24:50;1.50;;;1.40;;
6898;SDS011;3488;42.616;23.350;2022-11-20T00:27:17;3.38;;;2.17;;
6898;SDS011;3488;42.616;23.350;2022-11-20T00:29:44;2.40;;;2.30;;
6898;SDS011;3488;42.616;23.350;2022-11-20T00:32:11;1.55;;;1.45;;
6898;SDS011;3488;42.616;23.350;2022-11-20T00:34:38;1.88;;;1.00;;
6898;SDS011;3488;42.616;23.350;2022-11-20T00:37:05;4.32;;;1.10;;
6898;SDS011;3488;42.616;23.350;2022-11-20T00:39:32;1.23;;;1.20;;
6898;SDS011;3488;42.616;23.350;2022-11-20T00:42:00;3.60;;;0.90;;
6898;SDS011;3488;42.616;23.350;2022-11-20T00:44:26;1.20;;;1.20;;
6898;SDS011;3488;42.616;23.350;2022-11-20T00:46:53;0.75;;;0.70;;
6898;SDS011;3488;42.616;23.350;2022-11-20T00:49:20;1.27;;;1.25;;
6898;SDS011;3488;42.616;23.350;2022-11-20T00:51:47;1.00;;;0.70;;
6898;SDS011;3488;42.616;23.350;2022-11-20T00:54:14;2.33;;;1.20;;
6898;SDS011;3488;42.616;23.350;2022-11-20T00:56:41;0.98;;;0.82;;
6898;SDS011;3488;42.616;23.350;2022-11-20T00:59:09;4.50;;;1.20;;
6898;SDS011;3488;42.616;23.350;2022-11-20T01:01:37;1.23;;;1.20;;
6898;SDS011;3488;42.616;23.350;2022-11-20T01:04:04;1.63;;;1.05;;
6898;SDS011;3488;42.616;23.350;2022-11-20T01:06:32;1.45;;;1.40;;
6898;SDS011;3488;42.616;23.350;2022-11-20T01:09:01;0.70;;;0.70;;
6898;SDS011;3488;42.616;23.350;2022-11-20T01:11:31;1.30;;;0.70;;
6898;SDS011;3488;42.616;23.350;2022-11-20T01:14:00;0.70;;;0.70;;
6898;SDS011;3488;42.616;23.350;2022-11-20T01:16:34;1.38;;;0.90;;
6898;SDS011;3488;42.616;23.350;2022-11-20T01:19:03;1.55;;;1.00;;
6898;SDS011;3488;42.616;23.350;2022-11-20T01:21:32;2.28;;;1.00;;
6898;SDS011;3488;42.616;23.350;2022-11-20T01:24:00;0.80;;;0.77;;
6898;SDS011;3488;42.616;23.350;2022-11-20T01:26:28;2.17;;;1.25;;
6898;SDS011;3488;42.616;23.350;2022-11-20T01:28:57;2.30;;;0.93;;
6898;SDS011;3488;42.616;23.350;2022-11-20T01:31:25;3.40;;;0.80;;
6898;SDS011;3488;42.616;23.350;2022-11-20T01:33:56;4.65;;;1.75;;
6898;SDS011;3488;42.616;23.350;2022-11-20T01:36:27;2.17;;;1.67;;
6898;SDS011;3488;42.616;23.350;2022-11-20T01:38:56;2.35;;;1.92;;
6898;SDS011;3488;42.616;23.350;2022-11-20T01:41:25;1.75;;;1.10;;
6898;SDS011;3488;42.616;23.350;2022-11-20T01:44:10;1.95;;;1.20;;
6898;SDS011;3488;42.616;23.350;2022-11-20T01:46:40;1.30;;;1.20;;
6898;SDS011;3488;42.616;23.350;2022-11-20T01:49:16;0.90;;;0.80;;
6898;SDS011;3488;42.616;23.350;2022-11-20T01:51:47;1.42;;;0.80;;
6898;SDS011;3488;42.616;23.350;2022-11-20T01:54:19;0.82;;;0.82;;
6898;SDS011;3488;42.616;23.350;2022-11-20T01:56:50;2.38;;;0.70;;
6898;SDS011;3488;42.616;23.350;2022-11-20T01:59:20;1.70;;;1.38;;
6898;SDS011;3488;42.616;23.350;2022-11-20T02:01:51;1.33;;;1.23;;
6898;SDS011;3488;42.616;23.350;2022-11-20T02:04:19;3.60;;;0.60;;
6898;SDS011;3488;42.616;23.350;2022-11-20T02:06:48;1.70;;;1.30;;
6898;SDS011;3488;42.616;23.350;2022-11-20T02:09:20;0.60;;;0.60;;
6898;SDS011;3488;42.616;23.350;2022-11-20T02:11:46;1.23;;;1.00;;
6898;SDS011;3488;42.616;23.350;2022-11-20T02:14:13;1.30;;;0.95;;
6898;SDS011;3488;42.616;23.350;2022-11-20T02:16:43;2.28;;;1.00;;
6898;SDS011;3488;42.616;23.350;2022-11-20T02:19:14;0.63;;;0.60;;
6898;SDS011;3488;42.616;23.350;2022-11-20T02:21:50;1.52;;;1.02;;
6898;SDS011;3488;42.616;23.350;2022-11-20T02:24:25;1.20;;;0.60;;
6898;SDS011;3488;42.616;23.350;2022-11-20T02:26:53;1.23;;;1.10;;
6898;SDS011;3488;42.616;23.350;2022-11-20T02:29:23;0.80;;;0.80;;
6898;SDS011;3488;42.616;23.350;2022-11-20T02:31:53;1.90;;;0.65;;
6898;SDS011;3488;42.616;23.350;2022-11-20T02:34:23;2.15;;;0.90;;
6898;SDS011;3488;42.616;23.350;2022-11-20T02:36:50;1.42;;;0.70;;
6898;SDS011;3488;42.616;23.350;2022-11-20T02:39:19;2.10;;;0.68;;
6898;SDS011;3488;42.616;23.350;2022-11-20T02:41:51;0.95;;;0.70;;
6898;SDS011;3488;42.616;23.350;2022-11-20T02:44:20;0.88;;;0.40;;
6898;SDS011;3488;42.616;23.350;2022-11-20T02:46:47;1.05;;;0.95;;
6898;SDS011;3488;42.616;23.350;2022-11-20T02:49:14;2.38;;;0.68;;
6898;SDS011;3488;42.616;23.350;2022-11-20T02:51:41;0.50;;;0.50;;
6898;SDS011;3488;42.616;23.350;2022-11-20T02:54:08;0.70;;;0.70;;
6898;SDS011;3488;42.616;23.350;2022-11-20T02:56:37;1.27;;;0.60;;
6898;SDS011;3488;42.616;23.350;2022-11-20T02:59:06;1.00;;;1.00;;
6898;SDS011;3488;42.616;23.350;2022-11-20T03:01:33;2.25;;;0.93;;
6898;SDS011;3488;42.616;23.350;2022-11-20T03:04:00;0.82;;;0.57;;
6898;SDS011;3488;42.616;23.350;2022-11-20T03:06:26;1.88;;;0.90;;
6898;SDS011;3488;42.616;23.350;2022-11-20T03:08:53;5.10;;;1.33;;
6898;SDS011;3488;42.616;23.350;2022-11-20T03:11:20;0.68;;;0.68;;
6898;SDS011;3488;42.616;23.350;2022-11-20T03:13:47;0.63;;;0.63;;
6898;SDS011;3488;42.616;23.350;2022-11-20T03:16:16;1.33;;;0.90;;
6898;SDS011;3488;42.616;23.350;2022-11-20T03:18:45;2.78;;;0.80;;
6898;SDS011;3488;42.616;23.350;2022-11-20T03:21:12;0.90;;;0.60;;
6898;SDS011;3488;42.616;23.350;2022-11-20T03:23:40;0.95;;;0.95;;
6898;SDS011;3488;42.616;23.350;2022-11-20T03:26:08;3.25;;;1.00;;
6898;SDS011;3488;42.616;23.350;2022-11-20T03:28:37;2.35;;;0.88;;
6898;SDS011;3488;42.616;23.350;2022-11-20T03:31:07;2.13;;;0.75;;
6898;SDS011;3488;42.616;23.350;2022-11-20T03:33:37;2.50;;;0.70;;
6898;SDS011;3488;42.616;23.350;2022-11-20T03:36:05;0.75;;;0.75;;
6898;SDS011;3488;42.616;23.350;2022-11-20T03:38:33;1.10;;;0.65;;
6898;SDS011;3488;42.616;23.350;2022-11-20T03:41:00;0.90;;;0.68;;
6898;SDS011;3488;42.616;23.350;2022-11-20T03:43:28;1.80;;;0.60;;
6898;SDS011;3488;42.616;23.350;2022-11-20T03:45:55;2.38;;;0.80;;
6898;SDS011;3488;42.616;23.350;2022-11-20T03:48:22;1.00;;;1.00;;
6898;SDS011;3488;42.616;23.350;2022-11-20T03:50:51;0.70;;;0.70;;
6898;SDS011;3488;42.616;23.350;2022-11-20T03:53:18;1.67;;;0.95;;
6898;SDS011;3488;42.616;23.350;2022-11-20T03:55:49;3.83;;;0.63;;
6898;SDS011;3488;42.616;23.350;2022-11-20T03:58:17;3.08;;;1.17;;
6898;SDS011;3488;42.616;23.350;2022-11-20T04:00:45;1.85;;;0.55;;
6898;SDS011;3488;42.616;23.350;2022-11-20T04:03:12;2.05;;;1.02;;
6898;SDS011;3488;42.616;23.350;2022-11-20T04:05:39;1.58;;;1.30;;
6898;SDS011;3488;42.616;23.350;2022-11-20T04:08:07;0.80;;;0.80;;
6898;SDS011;3488;42.616;23.350;2022-11-20T04:10:34;1.10;;;1.10;;
6898;SDS011;3488;42.616;23.350;2022-11-20T04:13:00;1.58;;;0.68;;
6898;SDS011;3488;42.616;23.350;2022-11-20T04:15:28;1.67;;;0.77;;
6898;SDS011;3488;42.616;23.350;2022-11-20T04:17:55;1.67;;;1.33;;
6898;SDS011;3488;42.616;23.350;2022-11-20T04:20:21;0.65;;;0.60;;
6898;SDS011;3488;42.616;23.350;2022-11-20T04:22:48;2.97;;;0.80;;
6898;SDS011;3488;42.616;23.350;2022-11-20T04:25:17;1.33;;;0.60;;
6898;SDS011;3488;42.616;23.350;2022-11-20T04:27:44;1.23;;;0.65;;
6898;SDS011;3488;42.616;23.350;2022-11-20T04:30:11;0.70;;;0.70;;
6898;SDS011;3488;42.616;23.350;2022-11-20T04:32:38;0.60;;;0.55;;
6898;SDS011;3488;42.616;23.350;2022-11-20T04:35:05;0.77;;;0.77;;
6898;SDS011;3488;42.616;23.350;2022-11-20T04:37:32;0.90;;;0.60;;
6898;SDS011;3488;42.616;23.350;2022-11-20T04:40:00;2.55;;;0.80;;
6898;SDS011;3488;42.616;23.350;2022-11-20T04:42:28;1.60;;;0.70;;
6898;SDS011;3488;42.616;23.350;2022-11-20T04:44:55;0.90;;;0.90;;
6898;SDS011;3488;42.616;23.350;2022-11-20T04:47:22;1.20;;;0.88;;
6898;SDS011;3488;42.616;23.350;2022-11-20T04:49:49;0.68;;;0.68;;
6898;SDS011;3488;42.616;23.350;2022-11-20T04:52:16;1.80;;;1.00;;
6898;SDS011;3488;42.616;23.350;2022-11-20T04:54:43;1.02;;;0.63;;
6898;SDS011;3488;42.616;23.350;2022-11-20T04:57:09;1.77;;;0.90;;
6898;SDS011;3488;42.616;23.350;2022-11-20T04:59:37;1.50;;;0.93;;
6898;SDS011;3488;42.616;23.350;2022-11-20T05:02:04;1.85;;;0.65;;
6898;SDS011;3488;42.616;23.350;2022-11-20T05:04:31;1.58;;;0.57;;
6898;SDS011;3488;42.616;23.350;2022-11-20T05:06:58;1.95;;;0.57;;
6898;SDS011;3488;42.616;23.350;2022-11-20T05:09:25;1.10;;;0.57;;
6898;SDS011;3488;42.616;23.350;2022-11-20T05:11:52;3.22;;;0.85;;
6898;SDS011;3488;42.616;23.350;2022-11-20T05:14:19;0.40;;;0.40;;
6898;SDS011;3488;42.616;23.350;2022-11-20T05:16:47;0.47;;;0.47;;
6898;SDS011;3488;42.616;23.350;2022-11-20T05:19:14;2.47;;;0.40;;
6898;SDS011;3488;42.616;23.350;2022-11-20T05:21:41;1.95;;;0.93;;
6898;SDS011;3488;42.616;23.350;2022-11-20T05:24:09;1.38;;;0.70;;
6898;SDS011;3488;42.616;23.350;2022-11-20T05:26:36;3.13;;;0.85;;
6898;SDS011;3488;42.616;23.350;2022-11-20T05:29:03;2.55;;;0.73;;
6898;SDS011;3488;42.616;23.350;2022-11-20T05:31:30;0.70;;;0.70;;
6898;SDS011;3488;42.616;23.350;2022-11-20T05:33:58;0.60;;;0.60;;
6898;SDS011;3488;42.616;23.350;2022-11-20T05:36:25;1.02;;;0.93;;
6898;SDS011;3488;42.616;23.350;2022-11-20T05:38:52;0.75;;;0.60;;
6898;SDS011;3488;42.616;23.350;2022-11-20T05:41:19;2.50;;;1.10;;
6898;SDS011;3488;42.616;23.350;2022-11-20T05:43:47;3.17;;;1.05;;
6898;SDS011;3488;42.616;23.350;2022-11-20T05:46:16;0.95;;;0.95;;
6898;SDS011;3488;42.616;23.350;2022-11-20T05:48:44;1.25;;;0.80;;
6898;SDS011;3488;42.616;23.350;2022-11-20T05:51:14;0.82;;;0.82;;
6898;SDS011;3488;42.616;23.350;2022-11-20T05:53:41;1.75;;;0.90;;
6898;SDS011;3488;42.616;23.350;2022-11-20T05:56:09;0.77;;;0.77;;
6898;SDS011;3488;42.616;23.350;2022-11-20T05:58:37;0.93;;;0.70;;
6898;SDS011;3488;42.616;23.350;2022-11-20T06:01:05;0.85;;;0.85;;
6898;SDS011;3488;42.616;23.350;2022-11-20T06:03:33;1.45;;;0.70;;
6898;SDS011;3488;42.616;23.350;2022-11-20T06:06:02;1.27;;;1.00;;
6898;SDS011;3488;42.616;23.350;2022-11-20T06:08:31;2.70;;;0.90;;
6898;SDS011;3488;42.616;23.350;2022-11-20T06:11:02;3.33;;;1.05;;
6898;SDS011;3488;42.616;23.350;2022-11-20T06:13:29;2.17;;;0.80;;
6898;SDS011;3488;42.616;23.350;2022-11-20T06:15:56;5.00;;;0.80;;
6898;SDS011;3488;42.616;23.350;2022-11-20T06:18:25;1.13;;;0.90;;
6898;SDS011;3488;42.616;23.350;2022-11-20T06:20:58;1.98;;;0.98;;
6898;SDS011;3488;42.616;23.350;2022-11-20T06:23:27;3.55;;;1.00;;
6898;SDS011;3488;42.616;23.350;2022-11-20T06:25:56;4.50;;;0.90;;
6898;SDS011;3488;42.616;23.350;2022-11-20T06:28:23;1.02;;;0.90;;
6898;SDS011;3488;42.616;23.350;2022-11-20T06:30:50;2.65;;;1.15;;
6898;SDS011;3488;42.616;23.350;2022-11-20T06:33:17;0.60;;;0.60;;
6898;SDS011;3488;42.616;23.350;2022-11-20T06:35:44;1.08;;;0.70;;
6898;SDS011;3488;42.616;23.350;2022-11-20T06:38:11;1.05;;;0.80;;
6898;SDS011;3488;42.616;23.350;2022-11-20T06:40:39;1.17;;;0.57;;
6898;SDS011;3488;42.616;23.350;2022-11-20T06:43:08;1.73;;;0.80;;
6898;SDS011;3488;42.616;23.350;2022-11-20T06:45:35;2.88;;;1.20;;
6898;SDS011;3488;42.616;23.350;2022-11-20T06:48:03;0.65;;;0.65;;
6898;SDS011;3488;42.616;23.350;2022-11-20T06:50:30;1.33;;;0.50;;
6898;SDS011;3488;42.616;23.350;2022-11-20T06:52:59;0.47;;;0.47;;
6898;SDS011;3488;42.616;23.350;2022-11-20T06:55:28;2.83;;;0.60;;
6898;SDS011;3488;42.616;23.350;2022-11-20T06:57:55;0.85;;;0.70;;
6898;SDS011;3488;42.616;23.350;2022-11-20T07:00:23;0.70;;;0.45;;
6898;SDS011;3488;42.616;23.350;2022-11-20T07:02:50;1.00;;;0.80;;
6898;SDS011;3488;42.616;23.350;2022-11-20T07:05:17;0.45;;;0.45;;
6898;SDS011;3488;42.616;23.350;2022-11-20T07:07:44;0.63;;;0.50;;
6898;SDS011;3488;42.616;23.350;2022-11-20T07:10:11;1.88;;;0.55;;
6898;SDS011;3488;42.616;23.350;2022-11-20T07:12:38;0.50;;;0.50;;
6898;SDS011;3488;42.616;23.350;2022-11-20T07:15:05;1.48;;;0.90;;
6898;SDS011;3488;42.616;23.350;2022-11-20T07:17:35;1.25;;;0.93;;
6898;SDS011;3488;42.616;23.350;2022-11-20T07:20:02;7.43;;;1.02;;
6898;SDS011;3488;42.616;23.350;2022-11-20T07:22:29;1.55;;;1.23;;
6898;SDS011;3488;42.616;23.350;2022-11-20T07:24:57;2.80;;;0.90;;
6898;SDS011;3488;42.616;23.350;2022-11-20T07:27:23;0.40;;;0.40;;
6898;SDS011;3488;42.616;23.350;2022-11-20T07:29:50;1.25;;;0.60;;
6898;SDS011;3488;42.616;23.350;2022-11-20T07:32:17;1.25;;;0.75;;
6898;SDS011;3488;42.616;23.350;2022-11-20T07:34:45;1.25;;;1.08;;
6898;SDS011;3488;42.616;23.350;2022-11-20T07:37:12;1.70;;;1.38;;
6898;SDS011;3488;42.616;23.350;2022-11-20T07:39:39;1.42;;;0.70;;
6898;SDS011;3488;42.616;23.350;2022-11-20T07:42:06;6.15;;;1.25;;
6898;SDS011;3488;42.616;23.350;2022-11-20T07:44:37;2.22;;;0.77;;
6898;SDS011;3488;42.616;23.350;2022-11-20T07:47:04;8.80;;;5.47;;
6898;SDS011;3488;42.616;23.350;2022-11-20T07:49:31;2.08;;;1.85;;
6898;SDS011;3488;42.616;23.350;2022-11-20T07:51:59;4.95;;;1.17;;
6898;SDS011;3488;42.616;23.350;2022-11-20T07:54:26;3.30;;;2.78;;
6898;SDS011;3488;42.616;23.350;2022-11-20T07:56:53;4.07;;;1.48;;
6898;SDS011;3488;42.616;23.350;2022-11-20T07:59:21;7.00;;;4.18;;
6898;SDS011;3488;42.616;23.350;2022-11-20T08:01:48;1.52;;;1.42;;
6898;SDS011;3488;42.616;23.350;2022-11-20T08:04:15;5.57;;;2.42;;
6898;SDS011;3488;42.616;23.350;2022-11-20T08:06:42;2.97;;;1.05;;
6898;SDS011;3488;42.616;23.350;2022-11-20T08:09:10;2.13;;;1.23;;
6898;SDS011;3488;42.616;23.350;2022-11-20T08:11:37;5.50;;;1.83;;
6898;SDS011;3488;42.616;23.350;2022-11-20T08:14:21;9.85;;;1.52;;
6898;SDS011;3488;42.616;23.350;2022-11-20T08:16:49;2.15;;;1.95;;
6898;SDS011;3488;42.616;23.350;2022-11-20T08:19:18;3.67;;;1.00;;
6898;SDS011;3488;42.616;23.350;2022-11-20T08:21:45;1.08;;;1.08;;
6898;SDS011;3488;42.616;23.350;2022-11-20T08:24:14;0.80;;;0.80;;
6898;SDS011;3488;42.616;23.350;2022-11-20T08:26:41;1.48;;;1.10;;
6898;SDS011;3488;42.616;23.350;2022-11-20T08:29:07;2.55;;;1.17;;
6898;SDS011;3488;42.616;23.350;2022-11-20T08:31:34;3.83;;;1.60;;
6898;SDS011;3488;42.616;23.350;2022-11-20T08:34:01;1.75;;;1.63;;
6898;SDS011;3488;42.616;23.350;2022-11-20T08:36:28;3.53;;;1.05;;
6898;SDS011;3488;42.616;23.350;2022-11-20T08:38:55;3.92;;;2.42;;
6898;SDS011;3488;42.616;23.350;2022-11-20T08:41:23;6.60;;;1.95;;
6898;SDS011;3488;42.616;23.350;2022-11-20T08:43:51;3.60;;;1.33;;
6898;SDS011;3488;42.616;23.350;2022-11-20T08:46:19;4.90;;;1.30;;
6898;SDS011;3488;42.616;23.350;2022-11-20T08:48:46;2.67;;;1.35;;
6898;SDS011;3488;42.616;23.350;2022-11-20T08:51:15;5.43;;;1.95;;
6898;SDS011;3488;42.616;23.350;2022-11-20T08:53:42;4.65;;;1.75;;
6898;SDS011;3488;42.616;23.350;2022-11-20T08:56:09;3.92;;;1.20;;
6898;SDS011;3488;42.616;23.350;2022-11-20T08:58:38;2.13;;;1.10;;
6898;SDS011;3488;42.616;23.350;2022-11-20T09:01:05;3.28;;;2.00;;
6898;SDS011;3488;42.616;23.350;2022-11-20T09:03:32;2.08;;;1.17;;
6898;SDS011;3488;42.616;23.350;2022-11-20T09:05:59;3.13;;;1.60;;
6898;SDS011;3488;42.616;23.350;2022-11-20T09:08:27;6.35;;;1.90;;
6898;SDS011;3488;42.616;23.350;2022-11-20T09:10:56;4.13;;;1.98;;
6898;SDS011;3488;42.616;23.350;2022-11-20T09:13:24;2.65;;;2.47;;
6898;SDS011;3488;42.616;23.350;2022-11-20T09:15:54;5.85;;;2.83;;
6898;SDS011;3488;42.616;23.350;2022-11-20T09:18:21;4.18;;;2.72;;
6898;SDS011;3488;42.616;23.350;2022-11-20T09:20:48;2.85;;;2.65;;
6898;SDS011;3488;42.616;23.350;2022-11-20T09:23:16;9.60;;;3.60;;
6898;SDS011;3488;42.616;23.350;2022-11-20T09:25:42;5.93;;;2.90;;
6898;SDS011;3488;42.616;23.350;2022-11-20T09:28:09;9.18;;;3.70;;
6898;SDS011;3488;42.616;23.350;2022-11-20T09:30:36;4.50;;;3.33;;
6898;SDS011;3488;42.616;23.350;2022-11-20T09:33:05;4.40;;;2.58;;
6898;SDS011;3488;42.616;23.350;2022-11-20T09:35:32;3.30;;;2.42;;
6898;SDS011;3488;42.616;23.350;2022-11-20T09:38:03;4.18;;;3.17;;
6898;SDS011;3488;42.616;23.350;2022-11-20T09:40:31;3.80;;;2.83;;
6898;SDS011;3488;42.616;23.350;2022-11-20T09:43:01;8.15;;;3.55;;
6898;SDS011;3488;42.616;23.350;2022-11-20T09:45:44;7.80;;;5.00;;
6898;SDS011;3488;42.616;23.350;2022-11-20T09:48:35;5.47;;;4.13;;
6898;SDS011;3488;42.616;23.350;2022-11-20T09:51:16;4.43;;;4.03;;
6898;SDS011;3488;42.616;23.350;2022-11-20T09:53:56;4.30;;;3.70;;
6898;SDS011;3488;42.616;23.350;2022-11-20T09:56:28;6.03;;;4.28;;
6898;SDS011;3488;42.616;23.350;2022-11-20T09:58:57;6.75;;;4.72;;
6898;SDS011;3488;42.616;23.350;2022-11-20T10:01:29;11.05;;;5.03;;
6898;SDS011;3488;42.616;23.350;2022-11-20T10:04:01;5.78;;;4.30;;
6898;SDS011;3488;42.616;23.350;2022-11-20T10:06:31;4.80;;;4.13;;
6898;SDS011;3488;42.616;23.350;2022-11-20T10:09:01;7.28;;;4.53;;
6898;SDS011;3488;42.616;23.350;2022-11-20T10:11:38;5.05;;;3.92;;
6898;SDS011;3488;42.616;23.350;2022-11-20T10:14:16;4.05;;;3.50;;
6898;SDS011;3488;42.616;23.350;2022-11-20T10:16:51;5.10;;;2.30;;
6898;SDS011;3488;42.616;23.350;2022-11-20T10:19:32;3.42;;;2.33;;
6898;SDS011;3488;42.616;23.350;2022-11-20T10:22:17;1.88;;;1.65;;
6898;SDS011;3488;42.616;23.350;2022-11-20T10:25:00;4.25;;;2.15;;
6898;SDS011;3488;42.616;23.350;2022-11-20T10:30:29;4.60;;;2.83;;
6898;SDS011;3488;42.616;23.350;2022-11-20T10:33:03;3.22;;;2.28;;
6898;SDS011;3488;42.616;23.350;2022-11-20T10:35:39;2.63;;;2.28;;
6898;SDS011;3488;42.616;23.350;2022-11-20T10:38:09;6.88;;;3.03;;
6898;SDS011;3488;42.616;23.350;2022-11-20T10:40:42;3.33;;;2.85;;
6898;SDS011;3488;42.616;23.350;2022-11-20T10:43:13;6.38;;;3.05;;
6898;SDS011;3488;42.616;23.350;2022-11-20T10:45:46;3.50;;;3.20;;
6898;SDS011;3488;42.616;23.350;2022-11-20T10:48:20;5.80;;;3.45;;
6898;SDS011;3488;42.616;23.350;2022-11-20T10:50:53;5.28;;;3.00;;
6898;SDS011;3488;42.616;23.350;2022-11-20T10:53:37;8.05;;;2.47;;
6898;SDS011;3488;42.616;23.350;2022-11-20T10:56:13;4.57;;;2.80;;
6898;SDS011;3488;42.616;23.350;2022-11-20T10:58:45;3.92;;;2.92;;
6898;SDS011;3488;42.616;23.350;2022-11-20T11:01:22;4.45;;;2.90;;
6898;SDS011;3488;42.616;23.350;2022-11-20T11:03:49;3.97;;;2.45;;
6898;SDS011;3488;42.616;23.350;2022-11-20T11:06:20;3.17;;;2.85;;
6898;SDS011;3488;42.616;23.350;2022-11-20T11:08:53;4.50;;;3.33;;
6898;SDS011;3488;42.616;23.350;2022-11-20T11:11:26;6.75;;;3.00;;
6898;SDS011;3488;42.616;23.350;2022-11-20T11:14:05;6.07;;;2.58;;
6898;SDS011;3488;42.616;23.350;2022-11-20T11:16:33;3.38;;;3.17;;
6898;SDS011;3488;42.616;23.350;2022-11-20T11:19:04;11.95;;;4.22;;
6898;SDS011;3488;42.616;23.350;2022-11-20T11:21:35;8.82;;;4.38;;
6898;SDS011;3488;42.616;23.350;2022-11-20T11:24:15;9.13;;;4.57;;
6898;SDS011;3488;42.616;23.350;2022-11-20T11:26:50;9.27;;;5.15;;
6898;SDS011;3488;42.616;23.350;2022-11-20T11:29:19;1.58;;;1.48;;
6898;SDS011;3488;42.616;23.350;2022-11-20T11:31:46;1.13;;;1.00;;
6898;SDS011;3488;42.616;23.350;2022-11-20T11:34:14;3.58;;;1.60;;
6898;SDS011;3488;42.616;23.350;2022-11-20T11:36:47;0.32;;;0.32;;
6898;SDS011;3488;42.616;23.350;2022-11-20T11:39:18;1.10;;;0.50;;
6898;SDS011;3488;42.616;23.350;2022-11-20T11:41:47;0.80;;;0.50;;
6898;SDS011;3488;42.616;23.350;2022-11-20T11:44:18;0.47;;;0.47;;
6898;SDS011;3488;42.616;23.350;2022-11-20T11:47:04;1.63;;;0.28;;
6898;SDS011;3488;42.616;23.350;2022-11-20T11:49:36;2.53;;;0.60;;
6898;SDS011;3488;42.616;23.350;2022-11-20T11:52:05;0.50;;;0.50;;
6898;SDS011;3488;42.616;23.350;2022-11-20T11:54:41;1.42;;;0.57;;
6898;SDS011;3488;42.616;23.350;2022-11-20T11:57:15;4.20;;;0.73;;
6898;SDS011;3488;42.616;23.350;2022-11-20T11:59:59;0.47;;;0.45;;
6898;SDS011;3488;42.616;23.350;2022-11-20T12:02:31;3.30;;;0.57;;
6898;SDS011;3488;42.616;23.350;2022-11-20T12:05:03;0.52;;;0.52;;
6898;SDS011;3488;42.616;23.350;2022-11-20T12:07:43;2.58;;;0.47;;
6898;SDS011;3488;42.616;23.350;2022-11-20T12:10:15;0.63;;;0.30;;
6898;SDS011;3488;42.616;23.350;2022-11-20T12:12:48;0.73;;;0.30;;
6898;SDS011;3488;42.616;23.350;2022-11-20T12:15:24;0.20;;;0.20;;
6898;SDS011;3488;42.616;23.350;2022-11-20T12:17:55;0.75;;;0.47;;
6898;SDS011;3488;42.616;23.350;2022-11-20T12:20:22;2.40;;;0.30;;
6898;SDS011;3488;42.616;23.350;2022-11-20T12:22:57;0.30;;;0.25;;
6898;SDS011;3488;42.616;23.350;2022-11-20T12:25:31;2.20;;;0.50;;
6898;SDS011;3488;42.616;23.350;2022-11-20T12:31:01;2.38;;;0.60;;
6898;SDS011;3488;42.616;23.350;2022-11-20T12:33:50;0.63;;;0.43;;
6898;SDS011;3488;42.616;23.350;2022-11-20T12:36:28;1.55;;;0.32;;
6898;SDS011;3488;42.616;23.350;2022-11-20T12:39:19;1.88;;;0.38;;
6898;SDS011;3488;42.616;23.350;2022-11-20T12:42:13;2.83;;;0.55;;
6898;SDS011;3488;42.616;23.350;2022-11-20T12:45:22;0.88;;;0.70;;
6898;SDS011;3488;42.616;23.350;2022-11-20T12:48:18;6.43;;;0.70;;
6898;SDS011;3488;42.616;23.350;2022-11-20T12:51:13;5.13;;;0.82;;
6898;SDS011;3488;42.616;23.350;2022-11-20T12:53:56;1.35;;;1.25;;
6898;SDS011;3488;42.616;23.350;2022-11-20T12:56:35;2.50;;;1.00;;
6898;SDS011;3488;42.616;23.350;2022-11-20T12:59:16;3.17;;;0.95;;
6898;SDS011;3488;42.616;23.350;2022-11-20T13:01:55;1.80;;;1.08;;
6898;SDS011;3488;42.616;23.350;2022-11-20T13:04:42;1.42;;;1.42;;
6898;SDS011;3488;42.616;23.350;2022-11-20T13:07:19;1.67;;;1.58;;
6898;SDS011;3488;42.616;23.350;2022-11-20T13:09:48;1.90;;;1.70;;
6898;SDS011;3488;42.616;23.350;2022-11-20T13:12:19;2.65;;;1.58;;
6898;SDS011;3488;42.616;23.350;2022-11-20T13:14:52;1.70;;;1.40;;
6898;SDS011;3488;42.616;23.350;2022-11-20T13:17:28;5.20;;;1.25;;
6898;SDS011;3488;42.616;23.350;2022-11-20T13:20:12;1.13;;;1.02;;
6898;SDS011;3488;42.616;23.350;2022-11-20T13:22:43;3.40;;;1.30;;
6898;SDS011;3488;42.616;23.350;2022-11-20T13:25:21;4.57;;;2.10;;
6898;SDS011;3488;42.616;23.350;2022-11-20T13:27:50;4.70;;;3.00;;
6898;SDS011;3488;42.616;23.350;2022-11-20T13:30:18;5.25;;;3.10;;
6898;SDS011;3488;42.616;23.350;2022-11-20T13:32:50;3.47;;;2.75;;
6898;SDS011;3488;42.616;23.350;2022-11-20T13:35:29;2.75;;;2.00;;
6898;SDS011;3488;42.616;23.350;2022-11-20T13:38:02;3.03;;;2.03;;
6898;SDS011;3488;42.616;23.350;2022-11-20T13:40:34;5.30;;;2.33;;
6898;SDS011;3488;42.616;23.350;2022-11-20T13:43:18;4.85;;;2.97;;
6898;SDS011;3488;42.616;23.350;2022-11-20T13:45:58;5.32;;;2.78;;
6898;SDS011;3488;42.616;23.350;2022-11-20T13:48:29;2.42;;;2.20;;
6898;SDS011;3488;42.616;23.350;2022-11-20T13:51:01;3.47;;;2.67;;
6898;SDS011;3488;42.616;23.350;2022-11-20T13:53:49;4.72;;;3.10;;
6898;SDS011;3488;42.616;23.350;2022-11-20T13:56:35;3.72;;;2.90;;
6898;SDS011;3488;42.616;23.350;2022-11-20T13:59:14;5.32;;;3.88;;
6898;SDS011;3488;42.616;23.350;2022-11-20T14:01:55;3.78;;;3.33;;
6898;SDS011;3488;42.616;23.350;2022-11-20T14:04:25;6.35;;;2.88;;
6898;SDS011;3488;42.616;23.350;2022-11-20T14:06:55;3.75;;;3.47;;
6898;SDS011;3488;42.616;23.350;2022-11-20T14:09:27;3.92;;;3.53;;
6898;SDS011;3488;42.616;23.350;2022-11-20T14:11:55;5.78;;;2.75;;
6898;SDS011;3488;42.616;23.350;2022-11-20T14:14:23;2.92;;;2.72;;
6898;SDS011;3488;42.616;23.350;2022-11-20T14:16:52;2.33;;;2.10;;
6898;SDS011;3488;42.616;23.350;2022-11-20T14:19:25;5.00;;;2.72;;
6898;SDS011;3488;42.616;23.350;2022-11-20T14:22:07;6.43;;;3.88;;
6898;SDS011;3488;42.616;23.350;2022-11-20T14:24:36;3.97;;;3.30;;
6898;SDS011;3488;42.616;23.350;2022-11-20T14:27:03;8.45;;;4.57;;
6898;SDS011;3488;42.616;23.350;2022-11-20T14:29:34;5.97;;;5.18;;
6898;SDS011;3488;42.616;23.350;2022-11-20T14:32:03;8.20;;;4.80;;
6898;SDS011;3488;42.616;23.350;2022-11-20T14:34:31;5.22;;;4.47;;
6898;SDS011;3488;42.616;23.350;2022-11-20T14:37:04;8.63;;;6.85;;
6898;SDS011;3488;42.616;23.350;2022-11-20T14:39:37;9.98;;;6.38;;
6898;SDS011;3488;42.616;23.350;2022-11-20T14:42:11;11.07;;;7.18;;
6898;SDS011;3488;42.616;23.350;2022-11-20T14:44:43;9.05;;;6.10;;
6898;SDS011;3488;42.616;23.350;2022-11-20T14:47:11;11.20;;;6.50;;
6898;SDS011;3488;42.616;23.350;2022-11-20T14:49:41;13.90;;;8.68;;
6898;SDS011;3488;42.616;23.350;2022-11-20T14:52:11;11.35;;;8.73;;
6898;SDS011;3488;42.616;23.350;2022-11-20T14:54:44;15.82;;;10.70;;
6898;SDS011;3488;42.616;23.350;2022-11-20T14:57:22;21.75;;;13.00;;
6898;SDS011;3488;42.616;23.350;2022-11-20T15:00:03;19.88;;;11.68;;
6898;SDS011;3488;42.616;23.350;2022-11-20T15:02:32;12.73;;;9.40;;
6898;SDS011;3488;42.616;23.350;2022-11-20T15:05:05;6.03;;;4.68;;
6898;SDS011;3488;42.616;23.350;2022-11-20T15:07:33;3.20;;;2.90;;
6898;SDS011;3488;42.616;23.350;2022-11-20T15:10:04;3.75;;;2.67;;
6898;SDS011;3488;42.616;23.350;2022-11-20T15:12:32;3.40;;;2.28;;
6898;SDS011;3488;42.616;23.350;2022-11-20T15:15:02;3.40;;;2.50;;
6898;SDS011;3488;42.616;23.350;2022-11-20T15:17:32;3.50;;;2.80;;
6898;SDS011;3488;42.616;23.350;2022-11-20T15:20:09;4.25;;;2.15;;
6898;SDS011;3488;42.616;23.350;2022-11-20T15:22:39;3.25;;;2.97;;
6898;SDS011;3488;42.616;23.350;2022-11-20T15:25:11;4.00;;;2.80;;